Time;durP1;ratioP1;P1;durP2;ratioP2;P2;SDS_P1;SDS_P2;PMS_P1;PMS_P2;Temp;Humidity;BMP_temperature;BMP_pressure;BME280_temperature;BME280_humidity;BME280_pressure;Samples;Min_cycle;Max_cycle;Signal;HPM_P1;HPM_P2
2024/01/21 00:00:44;;;;;;;13.93;6.70;;;;;;;-5.10;100.00;101894.16;4967085;28;20645;-71
2024/01/21 00:03:10;;;;;;;18.47;7.30;;;;;;;-5.10;100.00;101894.16;4969321;28;20470;-68
2024/01/21 00:05:37;;;;;;;47.73;16.47;;;;;;;-5.05;100.00;101895.53;4972914;28;20465;-70
2024/01/21 00:08:04;;;;;;;47.93;17.90;;;;;;;-5.00;100.00;101885.66;4969519;28;20622;-68
2024/01/21 00:10:30;;;;;;;14.53;5.77;;;;;;;-5.03;100.00;101885.34;4966356;28;20507;-69
2024/01/21 00:12:57;;;;;;;15.57;5.63;;;;;;;-5.10;100.00;101871.81;4971876;28;20487;-68
2024/01/21 00:15:23;;;;;;;14.60;6.43;;;;;;;-5.10;100.00;101868.34;4972553;28;20889;-70
2024/01/21 00:17:49;;;;;;;12.80;4.73;;;;;;;-5.16;100.00;101862.56;4972257;28;20480;-68
2024/01/21 00:20:16;;;;;;;16.93;5.73;;;;;;;-5.16;100.00;101875.47;4971670;28;20445;-69
2024/01/21 00:22:44;;;;;;;14.47;6.40;;;;;;;-5.13;100.00;101868.03;4967195;28;20487;-70
2024/01/21 00:25:10;;;;;;;11.53;4.17;;;;;;;-5.18;100.00;101862.41;4971436;28;20470;-68
2024/01/21 00:27:37;;;;;;;15.93;5.53;;;;;;;-5.08;100.00;101865.13;4972523;28;20438;-70
2024/01/21 00:30:04;;;;;;;11.73;4.10;;;;;;;-5.07;100.00;101861.78;4970347;28;20449;-71
2024/01/21 00:32:31;;;;;;;47.63;15.80;;;;;;;-5.03;100.00;101857.84;4971830;28;20978;-70
2024/01/21 00:34:57;;;;;;;16.80;5.10;;;;;;;-5.00;100.00;101847.81;4968610;28;20879;-69
2024/01/21 00:37:24;;;;;;;8.27;5.60;;;;;;;-5.15;100.00;101851.47;4970543;28;20499;-69
2024/01/21 00:39:50;;;;;;;10.07;4.97;;;;;;;-5.19;100.00;101858.00;4967465;28;20524;-68
2024/01/21 00:42:17;;;;;;;11.83;6.17;;;;;;;-5.17;100.00;101863.31;4971503;28;20988;-71
2024/01/21 00:44:43;;;;;;;47.27;16.47;;;;;;;-5.22;100.00;101851.59;4961442;28;20460;-70
2024/01/21 00:47:10;;;;;;;15.57;5.33;;;;;;;-5.30;100.00;101843.09;4966219;28;20522;-68
2024/01/21 00:49:39;;;;;;;12.57;4.83;;;;;;;-5.27;100.00;101858.91;4970855;28;20536;-71
2024/01/21 00:52:06;;;;;;;9.00;4.07;;;;;;;-5.24;100.00;101851.44;4970953;28;20524;-69
2024/01/21 00:54:33;;;;;;;20.87;5.13;;;;;;;-5.19;100.00;101864.84;4963454;28;20507;-69
2024/01/21 00:56:59;;;;;;;17.67;4.57;;;;;;;-5.28;100.00;101854.50;4968074;28;20497;-71
2024/01/21 00:59:25;;;;;;;8.77;3.80;;;;;;;-5.33;100.00;101859.97;4969217;28;20437;-70
2024/01/21 01:01:52;;;;;;;6.53;3.83;;;;;;;-5.38;100.00;101859.50;4971236;28;20470;-68
2024/01/21 01:04:18;;;;;;;6.00;4.00;;;;;;;-5.38;100.00;101856.94;4971292;28;20456;-69
2024/01/21 01:06:45;;;;;;;43.50;16.37;;;;;;;-5.44;100.00;101864.06;4964358;28;20556;-68
2024/01/21 01:09:12;;;;;;;43.27;15.70;;;;;;;-5.75;100.00;101842.91;4964451;28;20477;-70
2024/01/21 01:11:39;;;;;;;11.07;4.00;;;;;;;-5.85;100.00;101855.66;4969387;28;20527;-69
2024/01/21 01:14:05;;;;;;;9.17;4.20;;;;;;;-5.96;100.00;101847.63;4971161;28;20913;-68
2024/01/21 01:16:38;;;;;;;9.40;4.40;;;;;;;-5.89;100.00;101853.50;4965804;28;20480;-69
2024/01/21 01:19:08;;;;;;;13.67;4.63;;;;;;;-5.75;100.00;101845.50;4968680;28;20563;-70
2024/01/21 01:21:35;;;;;;;14.13;5.23;;;;;;;-5.72;100.00;101835.47;4970464;28;20519;-70
2024/01/21 01:24:01;;;;;;;37.33;14.93;;;;;;;-5.75;100.00;101845.50;4968502;28;20445;-69
2024/01/21 01:26:28;;;;;;;16.10;4.77;;;;;;;-5.82;100.00;101852.47;4968711;28;20455;-71
2024/01/21 01:28:54;;;;;;;7.50;3.90;;;;;;;-5.85;100.00;101852.16;4969103;28;20511;-71
2024/01/21 01:31:21;;;;;;;7.57;3.80;;;;;;;-5.84;100.00;101847.16;4964153;28;20935;-70
2024/01/21 01:33:47;;;;;;;8.90;3.73;;;;;;;-5.84;100.00;101839.41;4967415;28;20518;-70
2024/01/21 01:36:14;;;;;;;36.23;14.73;;;;;;;-5.78;100.00;101836.53;4970786;28;20453;-70
2024/01/21 01:38:40;;;;;;;44.40;15.67;;;;;;;-5.64;100.00;101843.97;4970876;28;20564;-71
2024/01/21 01:41:09;;;;;;;13.00;5.97;;;;;;;-5.51;100.00;101841.91;4966763;28;20508;-72
2024/01/21 01:43:35;;;;;;;9.70;5.17;;;;;;;-5.42;100.00;101844.47;4970759;28;20459;-70
2024/01/21 01:46:03;;;;;;;11.07;4.60;;;;;;;-5.45;100.00;101837.34;4969089;28;20853;-70
2024/01/21 01:48:30;;;;;;;13.90;4.53;;;;;;;-5.46;100.00;101832.94;4970956;28;20522;-70
2024/01/21 01:50:58;;;;;;;18.07;6.73;;;;;;;-5.52;100.00;101840.06;4968510;28;20783;-71
2024/01/21 01:53:28;;;;;;;10.27;4.40;;;;;;;-5.53;100.00;101832.19;4966434;28;20830;-70
2024/01/21 01:55:55;;;;;;;41.90;15.27;;;;;;;-5.56;100.00;101837.03;4963871;28;20921;-69
2024/01/21 01:58:26;;;;;;;6.07;3.53;;;;;;;-5.60;100.00;101829.72;4969163;28;20478;-70
2024/01/21 02:00:56;;;;;;;13.13;3.67;;;;;;;-5.69;100.00;101822.88;4968629;28;20465;-70
2024/01/21 02:03:23;;;;;;;9.93;4.23;;;;;;;-5.62;100.00;101824.41;4968333;28;20478;-72
2024/01/21 02:05:50;;;;;;;12.83;4.70;;;;;;;-5.45;100.00;101820.94;4966346;28;20465;-69
2024/01/21 02:08:17;;;;;;;11.63;4.67;;;;;;;-5.45;100.00;101815.78;4969958;28;20580;-71
2024/01/21 02:10:43;;;;;;;11.47;4.67;;;;;;;-5.41;100.00;101815.31;4970232;28;20931;-69
2024/01/21 02:13:10;;;;;;;15.33;5.10;;;;;;;-5.44;100.00;101807.28;4966916;28;20694;-70
2024/01/21 02:15:36;;;;;;;11.47;3.53;;;;;;;-5.40;100.00;101812.00;4966353;28;20457;-69
2024/01/21 02:18:03;;;;;;;15.07;4.83;;;;;;;-5.35;100.00;101808.19;4967554;28;20507;-71
2024/01/21 02:20:30;;;;;;;17.80;4.80;;;;;;;-5.27;100.00;101801.19;4964407;28;20957;-69
2024/01/21 02:22:59;;;;;;;14.70;4.43;;;;;;;-5.14;100.00;101792.25;4969068;28;20460;-68
2024/01/21 02:25:25;;;;;;;14.30;5.30;;;;;;;-5.11;100.00;101792.53;4968241;28;20935;-70
2024/01/21 02:27:52;;;;;;;11.97;4.33;;;;;;;-5.18;100.00;101784.03;4969637;28;20925;-70
2024/01/21 02:30:18;;;;;;;9.70;4.50;;;;;;;-5.17;100.00;101791.03;4969235;28;20444;-70
2024/01/21 02:32:46;;;;;;;16.43;5.50;;;;;;;-5.17;100.00;101784.19;4965274;28;20567;-71
2024/01/21 02:35:12;;;;;;;9.13;4.43;;;;;;;-5.11;100.00;101774.47;4967914;28;20450;-70
2024/01/21 02:37:40;;;;;;;45.20;16.80;;;;;;;-4.96;100.00;101764.69;4966545;28;20505;-68
2024/01/21 02:40:08;;;;;;;13.53;5.67;;;;;;;-4.96;100.00;101775.03;4969058;28;20516;-70
2024/01/21 02:42:34;;;;;;;16.00;5.10;;;;;;;-4.98;100.00;101763.63;4968348;28;20737;-67
2024/01/21 02:45:01;;;;;;;15.07;4.77;;;;;;;-4.98;100.00;101766.22;4965986;28;20727;-68
2024/01/21 02:47:27;;;;;;;9.07;5.43;;;;;;;-4.95;100.00;101758.75;4969000;28;20498;-70
2024/01/21 02:49:54;;;;;;;10.03;5.37;;;;;;;-5.01;100.00;101752.09;4966325;28;20457;-71
2024/01/21 02:52:20;;;;;;;14.67;6.50;;;;;;;-5.06;100.00;101760.31;4968713;28;20467;-69
2024/01/21 02:54:46;;;;;;;16.50;5.77;;;;;;;-4.96;100.00;101746.59;4959260;28;20552;-69
2024/01/21 02:57:13;;;;;;;18.97;5.60;;;;;;;-5.04;100.00;101737.22;4962486;28;20467;-69
2024/01/21 02:59:40;;;;;;;16.30;4.67;;;;;;;-5.02;100.00;101745.13;4968674;28;20540;-71
2024/01/21 03:02:06;;;;;;;43.07;15.70;;;;;;;-5.09;100.00;101747.09;4968420;28;20476;-70
2024/01/21 03:04:32;;;;;;;40.93;17.27;;;;;;;-5.07;100.00;101743.00;4966015;28;20463;-70
2024/01/21 03:06:59;;;;;;;14.43;5.60;;;;;;;-4.87;100.00;101750.06;4968923;28;20437;-68
2024/01/21 03:09:25;;;;;;;8.03;3.63;;;;;;;-4.76;100.00;101749.44;4968967;28;20815;-69
2024/01/21 03:11:51;;;;;;;9.60;4.37;;;;;;;-4.72;100.00;101749.75;4970088;28;20492;-69
2024/01/21 03:14:18;;;;;;;5.23;4.33;;;;;;;-4.73;100.00;101735.91;4967403;28;20848;-70
2024/01/21 03:16:44;;;;;;;16.20;5.10;;;;;;;-4.71;100.00;101736.97;4965517;28;20453;-70
2024/01/21 03:19:11;;;;;;;15.83;6.63;;;;;;;-4.75;100.00;101732.28;4966391;28;20496;-71
2024/01/21 03:21:37;;;;;;;10.63;4.40;;;;;;;-4.70;100.00;101732.69;4969578;28;20457;-70
2024/01/21 03:24:04;;;;;;;16.73;6.10;;;;;;;-4.69;100.00;101738.00;4968520;28;21008;-68
2024/01/21 03:26:30;;;;;;;18.00;5.47;;;;;;;-4.72;100.00;101729.97;4967768;28;20960;-70
2024/01/21 03:28:57;;;;;;;41.90;16.90;;;;;;;-4.76;100.00;101728.78;4969527;28;20437;-70
2024/01/21 03:31:23;;;;;;;45.33;17.07;;;;;;;-4.74;100.00;101729.84;4966704;28;20575;-69
2024/01/21 03:33:50;;;;;;;43.63;16.70;;;;;;;-4.72;100.00;101731.66;4969557;28;20452;-69
2024/01/21 03:36:16;;;;;;;40.73;16.20;;;;;;;-4.71;100.00;101718.88;4968682;28;20952;-70
2024/01/21 03:38:45;;;;;;;45.20;17.00;;;;;;;-4.57;100.00;101715.00;4963158;28;20503;-70
2024/01/21 03:41:11;;;;;;;43.60;16.27;;;;;;;-4.57;100.00;101712.41;4966731;28;20542;-69
2024/01/21 03:43:38;;;;;;;50.07;17.23;;;;;;;-4.60;100.00;101712.13;4968701;28;20650;-70
2024/01/21 03:46:04;;;;;;;47.47;18.00;;;;;;;-4.58;100.00;101715.75;4968896;28;20983;-69
2024/01/21 03:48:30;;;;;;;43.43;17.07;;;;;;;-4.59;100.00;101712.28;4966237;28;20464;-71
2024/01/21 03:50:57;;;;;;;10.10;4.87;;;;;;;-4.44;100.00;101703.34;4968926;28;20444;-69
2024/01/21 03:53:23;;;;;;;16.00;5.37;;;;;;;-4.36;100.00;101706.69;4968882;28;20444;-67
2024/01/21 03:55:50;;;;;;;21.67;4.27;;;;;;;-4.31;100.00;101714.88;4969903;28;20510;-70
2024/01/21 03:58:16;;;;;;;43.07;16.93;;;;;;;-4.37;100.00;101707.44;4968392;28;20489;-71
2024/01/21 04:00:43;;;;;;;46.97;17.57;;;;;;;-4.38;100.00;101710.81;4966861;28;20464;-70
2024/01/21 04:03:10;;;;;;;11.73;5.23;;;;;;;-4.54;100.00;101695.50;4970391;28;20458;-70
2024/01/21 04:05:36;;;;;;;15.63;4.70;;;;;;;-4.46;100.00;101704.88;4973201;28;20527;-70
2024/01/21 04:08:05;;;;;;;8.80;4.47;;;;;;;-4.50;100.00;101694.13;4972948;28;20447;-70
2024/01/21 04:10:31;;;;;;;5.03;4.00;;;;;;;-4.45;100.00;101706.72;4972434;28;20459;-68
2024/01/21 04:12:58;;;;;;;19.03;6.27;;;;;;;-4.40;100.00;101707.16;4970912;28;20554;-67
2024/01/21 04:15:24;;;;;;;44.23;16.77;;;;;;;-4.41;100.00;101706.22;4972477;28;20441;-70
2024/01/21 04:17:51;;;;;;;20.23;5.03;;;;;;;-4.47;100.00;101697.00;4972971;28;20433;-69
2024/01/21 04:20:17;;;;;;;11.03;3.87;;;;;;;-4.44;100.00;101712.78;4971749;28;20445;-68
2024/01/21 04:22:44;;;;;;;17.93;4.77;;;;;;;-4.44;100.00;101710.19;4966944;28;20471;-70
2024/01/21 04:25:10;;;;;;;14.00;5.33;;;;;;;-4.46;100.00;101722.97;4965599;28;21008;-67
2024/01/21 04:27:37;;;;;;;15.27;4.97;;;;;;;-4.45;100.00;101732.56;4970746;28;20489;-69
2024/01/21 04:30:04;;;;;;;10.33;6.10;;;;;;;-4.53;100.00;101727.44;4971122;28;20444;-67
2024/01/21 04:32:31;;;;;;;42.73;15.80;;;;;;;-4.51;100.00;101724.22;4972230;28;20483;-70
2024/01/21 04:34:57;;;;;;;6.23;3.77;;;;;;;-4.50;100.00;101719.97;4971400;28;20463;-70
2024/01/21 04:37:23;;;;;;;12.97;4.63;;;;;;;-4.58;100.00;101715.75;4972189;28;20437;-70
2024/01/21 04:39:50;;;;;;;15.60;5.47;;;;;;;-4.56;100.00;101719.41;4971842;28;20561;-71
2024/01/21 04:42:17;;;;;;;9.60;3.87;;;;;;;-4.77;100.00;101707.97;4969399;28;20484;-70
2024/01/21 04:44:43;;;;;;;14.07;6.43;;;;;;;-4.76;100.00;101728.78;4967369;28;20874;-70
2024/01/21 04:47:09;;;;;;;11.50;5.90;;;;;;;-4.76;100.00;101728.78;4969297;28;20543;-68
2024/01/21 04:49:36;;;;;;;11.17;4.67;;;;;;;-4.71;100.00;101724.03;4966349;28;20461;-72
2024/01/21 04:52:03;;;;;;;15.07;4.70;;;;;;;-4.79;100.00;101715.56;4971410;28;20996;-71
2024/01/21 04:54:29;;;;;;;10.20;4.57;;;;;;;-4.85;100.00;101719.22;4971908;28;20471;-70
2024/01/21 04:56:56;;;;;;;9.60;5.27;;;;;;;-4.85;100.00;101722.69;4970834;28;20464;-69
2024/01/21 04:59:22;;;;;;;12.23;4.93;;;;;;;-4.91;100.00;101704.03;4971476;28;20489;-70
2024/01/21 05:01:49;;;;;;;20.80;6.10;;;;;;;-4.92;100.00;101729.72;4971411;28;20465;-70
2024/01/21 05:04:16;;;;;;;9.57;4.53;;;;;;;-4.91;100.00;101735.03;4971580;28;20446;-70
2024/01/21 05:06:42;;;;;;;41.57;15.57;;;;;;;-5.00;100.00;101725.50;4970974;28;20464;-70
2024/01/21 05:09:10;;;;;;;41.43;16.63;;;;;;;-5.01;100.00;101722.00;4966209;28;20868;-70
2024/01/21 05:11:37;;;;;;;41.50;16.23;;;;;;;-4.95;100.00;101721.69;4969331;28;20562;-70
2024/01/21 05:14:04;;;;;;;15.10;5.53;;;;;;;-5.01;100.00;101716.84;4971817;28;20446;-69
2024/01/21 05:16:30;;;;;;;9.67;5.67;;;;;;;-4.92;100.00;101716.81;4970488;28;20449;-70
2024/01/21 05:18:56;;;;;;;16.83;5.53;;;;;;;-5.04;100.00;101706.22;4970273;28;21072;-69
2024/01/21 05:21:23;;;;;;;16.73;4.60;;;;;;;-5.06;100.00;101703.50;4971122;28;20467;-71
2024/01/21 05:23:51;;;;;;;8.87;4.90;;;;;;;-5.06;100.00;101720.66;4971442;28;20487;-70
2024/01/21 05:26:17;;;;;;;11.03;4.80;;;;;;;-5.12;100.00;101705.50;4968767;28;20538;-68
2024/01/21 05:28:45;;;;;;;10.83;3.73;;;;;;;-5.17;100.00;101686.06;4968756;28;20826;-70
2024/01/21 05:31:12;;;;;;;8.80;3.80;;;;;;;-5.03;100.00;101699.38;4975006;28;20464;-70
2024/01/21 05:33:40;;;;;;;5.87;3.70;;;;;;;-5.06;100.00;101700.91;4968846;28;20456;-70
2024/01/21 05:36:08;;;;;;;17.67;4.60;;;;;;;-5.00;100.00;101698.00;4969174;28;20457;-68
2024/01/21 05:38:34;;;;;;;7.33;3.70;;;;;;;-5.05;100.00;101700.16;4969898;28;20903;-70
2024/01/21 05:41:01;;;;;;;14.73;4.73;;;;;;;-5.03;100.00;101691.63;4969783;28;20443;-69
2024/01/21 05:43:27;;;;;;;17.13;4.53;;;;;;;-5.00;100.00;101684.19;4970551;28;20884;-71
2024/01/21 05:45:54;;;;;;;18.77;5.03;;;;;;;-5.05;100.00;101691.50;4970585;28;20937;-69
2024/01/21 05:48:20;;;;;;;14.93;4.57;;;;;;;-5.17;100.00;101693.81;4969407;28;20621;-70
2024/01/21 05:50:47;;;;;;;8.13;3.30;;;;;;;-5.18;100.00;101686.84;4965343;28;20467;-71
2024/01/21 05:53:13;;;;;;;15.97;4.53;;;;;;;-5.14;100.00;101675.13;4966512;28;20874;-68
2024/01/21 05:55:39;;;;;;;9.33;4.83;;;;;;;-5.19;100.00;101677.28;4968655;28;20489;-70
2024/01/21 05:58:06;;;;;;;39.77;15.07;;;;;;;-5.27;100.00;101678.19;4968341;28;20835;-68
2024/01/21 06:00:34;;;;;;;11.10;5.00;;;;;;;-5.26;100.00;101674.84;4969181;28;20443;-70
2024/01/21 06:03:01;;;;;;;9.53;4.30;;;;;;;-5.24;100.00;101682.72;4968916;28;20474;-71
2024/01/21 06:05:27;;;;;;;9.07;4.37;;;;;;;-5.26;100.00;101679.09;4970249;28;21098;-70
2024/01/21 06:07:54;;;;;;;12.57;3.50;;;;;;;-5.18;100.00;101675.59;4968928;28;20469;-70
2024/01/21 06:10:20;;;;;;;12.60;5.53;;;;;;;-5.23;100.00;101675.13;4966967;28;20544;-67
2024/01/21 06:12:47;;;;;;;12.97;4.37;;;;;;;-5.22;100.00;101676.94;4968052;28;20472;-68
2024/01/21 06:15:13;;;;;;;10.43;4.07;;;;;;;-5.23;100.00;101679.38;4968816;28;20449;-70
2024/01/21 06:17:40;;;;;;;10.77;3.70;;;;;;;-5.18;100.00;101662.69;4969598;28;20731;-69
2024/01/21 06:20:08;;;;;;;40.37;14.77;;;;;;;-5.16;100.00;101669.81;4966953;28;20484;-67
2024/01/21 06:22:38;;;;;;;34.87;14.00;;;;;;;-5.17;100.00;101667.09;4966397;28;20570;-69
2024/01/21 06:25:04;;;;;;;13.73;5.20;;;;;;;-5.22;100.00;101679.53;4970196;28;20651;-71
2024/01/21 06:27:31;;;;;;;28.87;11.70;;;;;;;-5.30;100.00;101689.88;4965486;28;20934;-70
2024/01/21 06:29:57;;;;;;;9.57;3.30;;;;;;;-5.54;100.00;101693.59;4969327;28;20444;-70
2024/01/21 06:32:24;;;;;;;6.63;2.90;;;;;;;-5.68;100.00;101699.97;4964055;28;20477;-70
2024/01/21 06:34:50;;;;;;;4.17;2.63;;;;;;;-5.79;100.00;101711.81;4968956;28;20471;-70
2024/01/21 06:37:17;;;;;;;8.50;3.60;;;;;;;-5.84;100.00;101719.84;4969284;28;20440;-70
2024/01/21 06:39:43;;;;;;;6.27;3.47;;;;;;;-5.91;100.00;101726.13;4969302;28;21006;-69
2024/01/21 06:42:22;;;;;;;7.43;2.30;;;;;;;-5.95;100.00;101724.00;4966782;28;20516;-68
2024/01/21 06:44:49;;;;;;;6.57;3.07;;;;;;;-6.02;100.00;101714.69;4966496;28;20443;-69
2024/01/21 06:47:15;;;;;;;26.60;10.43;;;;;;;-6.05;100.00;101719.56;4967382;28;20461;-69
2024/01/21 06:49:41;;;;;;;5.87;3.17;;;;;;;-6.02;100.00;101712.13;4966130;28;20453;-70
2024/01/21 06:52:08;;;;;;;7.67;2.73;;;;;;;-5.97;100.00;101712.63;4965982;28;20569;-69
2024/01/21 06:54:34;;;;;;;9.60;2.77;;;;;;;-6.02;100.00;101716.38;4969559;28;20564;-69
2024/01/21 06:57:01;;;;;;;11.33;4.07;;;;;;;-6.09;100.00;101712.28;4968995;28;20444;-69
2024/01/21 06:59:27;;;;;;;8.10;3.63;;;;;;;-6.17;100.00;101689.06;4968014;28;20539;-67
2024/01/21 07:01:54;;;;;;;5.93;3.03;;;;;;;-6.13;100.00;101701.50;4966007;28;20480;-69
2024/01/21 07:04:20;;;;;;;13.33;4.17;;;;;;;-6.12;100.00;101696.50;4967796;28;20437;-69
2024/01/21 07:06:47;;;;;;;12.30;3.57;;;;;;;-6.18;100.00;101706.22;4968135;28;20977;-69
2024/01/21 07:09:14;;;;;;;10.20;4.83;;;;;;;-6.14;100.00;101702.25;4967801;28;20965;-68
2024/01/21 07:11:43;;;;;;;5.43;2.53;;;;;;;-6.14;100.00;101705.75;4968498;28;20567;-68
2024/01/21 07:14:10;;;;;;;7.93;3.27;;;;;;;-6.09;100.00;101714.84;4962099;28;20887;-69
2024/01/21 07:16:36;;;;;;;7.27;3.07;;;;;;;-6.12;100.00;101711.06;4966231;28;20446;-69
2024/01/21 07:19:03;;;;;;;13.80;4.97;;;;;;;-6.20;100.00;101712.88;4968494;28;20476;-68
2024/01/21 07:21:30;;;;;;;7.90;4.20;;;;;;;-6.24;100.00;101705.59;4968401;28;20539;-70
2024/01/21 07:23:56;;;;;;;9.30;4.00;;;;;;;-6.24;100.00;101703.03;4969104;28;20457;-69
2024/01/21 07:26:23;;;;;;;7.57;5.03;;;;;;;-6.22;100.00;101688.63;4969355;28;20451;-68
2024/01/21 07:28:49;;;;;;;10.57;4.80;;;;;;;-6.16;100.00;101703.78;4965741;28;20830;-69
2024/01/21 07:31:16;;;;;;;14.67;3.67;;;;;;;-6.17;100.00;101714.84;4967919;28;20581;-69
2024/01/21 07:33:42;;;;;;;10.97;3.97;;;;;;;-6.19;100.00;101718.94;4971273;28;20515;-69
2024/01/21 07:36:10;;;;;;;8.60;4.27;;;;;;;-6.17;100.00;101720.00;4968650;28;20457;-67
2024/01/21 07:38:37;;;;;;;8.80;4.03;;;;;;;-6.14;100.00;101715.16;4972586;28;20893;-69
2024/01/21 07:41:04;;;;;;;11.63;4.40;;;;;;;-6.20;100.00;101724.84;4971954;28;20878;-69
2024/01/21 07:43:30;;;;;;;12.13;4.73;;;;;;;-6.18;100.00;101711.38;4967803;28;20472;-69
2024/01/21 07:45:59;;;;;;;10.53;4.77;;;;;;;-6.19;100.00;101706.97;4972886;28;20444;-69
2024/01/21 07:48:25;;;;;;;35.97;12.03;;;;;;;-6.17;100.00;101709.69;4972623;28;20449;-69
2024/01/21 07:50:52;;;;;;;15.17;4.93;;;;;;;-6.07;100.00;101705.59;4969942;28;20468;-67
2024/01/21 07:53:22;;;;;;;11.57;4.87;;;;;;;-6.05;100.00;101716.06;4972718;28;20945;-70
2024/01/21 07:55:49;;;;;;;33.77;13.67;;;;;;;-6.01;100.00;101715.63;4969373;28;20453;-69
2024/01/21 07:58:15;;;;;;;38.57;13.90;;;;;;;-6.08;100.00;101714.09;4970166;28;20632;-69
2024/01/21 08:00:45;;;;;;;34.17;12.90;;;;;;;-5.99;100.00;101724.44;4971684;28;20563;-69
2024/01/21 08:03:12;;;;;;;39.10;13.77;;;;;;;-6.12;100.00;101730.03;4970089;28;20449;-69
2024/01/21 08:05:38;;;;;;;37.10;13.40;;;;;;;-6.16;100.00;101725.31;4972396;28;20520;-70
2024/01/21 08:08:05;;;;;;;37.37;13.07;;;;;;;-6.11;100.00;101731.84;4972738;28;20445;-69
2024/01/21 08:10:32;;;;;;;34.10;12.93;;;;;;;-5.98;100.00;101738.25;4971757;28;20440;-67
2024/01/21 08:12:58;;;;;;;15.60;5.27;;;;;;;-5.91;100.00;101748.41;4968738;28;20480;-69
2024/01/21 08:15:25;;;;;;;10.70;4.27;;;;;;;-5.86;100.00;101745.50;4968383;28;20484;-68
2024/01/21 08:17:51;;;;;;;8.43;4.63;;;;;;;-5.89;100.00;101739.16;4968510;28;20469;-69
2024/01/21 08:20:18;;;;;;;15.43;5.10;;;;;;;-5.81;100.00;101740.78;4971905;28;20567;-68
2024/01/21 08:22:44;;;;;;;8.40;3.67;;;;;;;-5.84;100.00;101737.91;4971558;28;20457;-69
2024/01/21 08:25:11;;;;;;;8.30;3.43;;;;;;;-5.76;100.00;101735.31;4965241;28;20472;-69
2024/01/21 08:27:37;;;;;;;12.53;4.13;;;;;;;-5.64;100.00;101737.28;4971421;28;20450;-71
2024/01/21 08:30:05;;;;;;;11.17;4.13;;;;;;;-5.52;100.00;101746.25;4971430;28;21008;-70
2024/01/21 08:32:31;;;;;;;17.33;6.50;;;;;;;-5.48;100.00;101732.91;4970060;28;20472;-69
2024/01/21 08:34:58;;;;;;;38.40;13.57;;;;;;;-5.41;100.00;101727.56;4971074;28;20453;-68
2024/01/21 08:37:24;;;;;;;43.53;14.20;;;;;;;-5.35;100.00;101725.59;4962710;28;20623;-70
2024/01/21 08:39:51;;;;;;;40.13;14.10;;;;;;;-5.28;100.00;101734.81;4970519;28;20476;-69
2024/01/21 08:42:19;;;;;;;37.70;13.90;;;;;;;-5.24;100.00;101726.63;4970634;28;21233;-69
2024/01/21 08:44:46;;;;;;;38.07;13.23;;;;;;;-5.23;100.00;101718.09;4971343;28;20437;-70
2024/01/21 08:47:12;;;;;;;10.13;3.97;;;;;;;-5.11;100.00;101719.31;4970820;28;20960;-70
2024/01/21 08:49:39;;;;;;;8.17;3.57;;;;;;;-5.12;100.00;101727.81;4971555;28;20460;-70
2024/01/21 08:52:05;;;;;;;4.93;3.87;;;;;;;-5.15;100.00;101772.34;4971413;28;20461;-70
2024/01/21 08:54:32;;;;;;;13.93;5.00;;;;;;;-5.16;100.00;101774.78;4969429;28;20457;-70
2024/01/21 08:56:58;;;;;;;12.77;2.87;;;;;;;-5.14;100.00;101784.50;4972262;28;20445;-70
2024/01/21 08:59:25;;;;;;;14.47;4.70;;;;;;;-5.13;100.00;101788.88;4966792;28;20505;-70
2024/01/21 09:01:51;;;;;;;26.10;10.70;;;;;;;-5.08;100.00;101785.09;4967126;28;20559;-70
2024/01/21 09:04:18;;;;;;;9.50;3.33;;;;;;;-5.11;100.00;101789.94;4970409;28;20445;-70
2024/01/21 09:06:44;;;;;;;5.67;3.07;;;;;;;-5.09;100.00;101772.94;4968666;28;20436;-70
2024/01/21 09:09:11;;;;;;;6.60;4.33;;;;;;;-5.22;100.00;101767.31;4970158;28;20450;-69
2024/01/21 09:11:39;;;;;;;5.77;2.03;;;;;;;-5.14;100.00;101762.91;4969332;28;20537;-68
2024/01/21 09:14:06;;;;;;;12.20;3.43;;;;;;;-5.07;100.00;101774.00;4971380;28;20465;-71
2024/01/21 09:16:33;;;;;;;11.23;3.80;;;;;;;-4.96;100.00;101756.94;4970404;28;20955;-70
2024/01/21 09:19:00;;;;;;;6.93;3.23;;;;;;;-4.91;100.00;101740.22;4970747;28;20434;-70
2024/01/21 09:21:26;;;;;;;10.00;3.37;;;;;;;-4.76;100.00;101731.34;4969330;28;20469;-69
2024/01/21 09:24:03;;;;;;;7.57;4.10;;;;;;;-4.66;100.00;101722.81;4969709;28;20498;-69
2024/01/21 09:26:31;;;;;;;18.10;4.27;;;;;;;-4.87;100.00;101737.16;4971089;28;20470;-71
2024/01/21 09:28:57;;;;;;;6.57;3.27;;;;;;;-4.76;100.00;101766.63;4968633;28;20463;-69
2024/01/21 09:31:23;;;;;;;6.30;3.70;;;;;;;-4.94;100.00;101789.00;4970769;28;20453;-68
2024/01/21 09:33:50;;;;;;;3.10;2.00;;;;;;;-5.13;100.00;101791.47;4971326;28;20433;-69
2024/01/21 09:36:19;;;;;;;8.23;3.73;;;;;;;-5.12;100.00;101793.28;4968121;28;20461;-69
2024/01/21 09:38:45;;;;;;;6.03;3.57;;;;;;;-5.19;100.00;101814.13;4968998;28;20918;-69
2024/01/21 09:41:32;;;;;;;3.27;2.93;;;;;;;-5.11;100.00;101825.19;4970506;28;20516;-70
2024/01/21 09:43:59;;;;;;;26.53;9.80;;;;;;;-5.18;100.00;101823.69;4970108;28;20448;-70
2024/01/21 09:46:27;;;;;;;6.40;3.30;;;;;;;-5.09;100.00;101815.91;4970485;28;20525;-68
2024/01/21 09:48:54;;;;;;;21.20;8.53;;;;;;;-5.36;100.00;101850.25;4967709;28;20461;-71
2024/01/21 09:51:22;;;;;;;10.07;4.07;;;;;;;-5.29;100.00;101852.69;4970288;28;20850;-71
2024/01/21 09:53:49;;;;;;;7.43;3.33;;;;;;;-5.21;100.00;101848.25;4964721;28;20456;-68
2024/01/21 09:56:17;;;;;;;8.37;3.30;;;;;;;-4.96;100.00;101841.28;4959802;28;20811;-67
2024/01/21 09:58:51;;;;;;;6.17;3.70;;;;;;;-4.78;100.00;101823.31;4965272;28;20553;-70
2024/01/21 10:01:18;;;;;;;14.80;4.17;;;;;;;-4.50;100.00;101834.63;4967367;28;20500;-70
2024/01/21 10:03:46;;;;;;;4.90;2.57;;;;;;;-4.43;100.00;101837.03;4969383;28;20452;-70
2024/01/21 10:06:12;;;;;;;7.57;3.77;;;;;;;-4.50;100.00;101833.72;4970764;28;20544;-70
2024/01/21 10:08:39;;;;;;;5.77;3.47;;;;;;;-4.72;100.00;101824.66;4967694;28;20548;-71
2024/01/21 10:11:07;;;;;;;8.67;3.33;;;;;;;-4.41;100.00;101826.81;4964253;28;20477;-66
2024/01/21 10:13:38;;;;;;;8.30;3.80;;;;;;;-4.38;100.00;101831.41;4965675;28;20469;-69
2024/01/21 10:16:06;;;;;;;6.70;3.13;;;;;;;-4.20;100.00;101833.16;4960228;28;20947;-69
2024/01/21 10:18:34;;;;;;;6.37;2.77;;;;;;;-4.21;100.00;101852.94;4961625;28;21837;-71
2024/01/21 10:21:05;;;;;;;10.60;4.20;;;;;;;-4.04;100.00;101835.50;4966112;28;20867;-70
2024/01/21 10:23:32;;;;;;;7.70;2.60;;;;;;;-4.36;100.00;101833.38;4960564;28;20548;-69
2024/01/21 10:26:00;;;;;;;8.20;3.80;;;;;;;-4.45;100.00;101815.28;4960746;28;20455;-68
2024/01/21 10:28:28;;;;;;;7.83;4.23;;;;;;;-4.28;100.00;101805.66;4969050;28;20461;-69
2024/01/21 10:30:54;;;;;;;12.53;4.33;;;;;;;-4.13;100.00;101776.06;4967613;28;20464;-70
2024/01/21 10:33:21;;;;;;;14.63;3.60;;;;;;;-3.78;100.00;101780.25;4967127;28;20462;-69
2024/01/21 10:35:48;;;;;;;4.40;3.07;;;;;;;-3.75;100.00;101774.44;4965748;28;20966;-69
2024/01/21 10:38:15;;;;;;;5.47;3.40;;;;;;;-3.44;100.00;101757.44;4968017;28;20915;-68
2024/01/21 10:40:46;;;;;;;7.67;3.90;;;;;;;-3.18;100.00;101764.97;4965845;28;20559;-69
2024/01/21 10:43:14;;;;;;;15.57;4.63;;;;;;;-2.94;100.00;101761.97;4965027;28;20642;-69
2024/01/21 10:45:47;;;;;;;12.30;3.83;;;;;;;-3.07;100.00;101764.25;4959608;28;20853;-67
2024/01/21 10:48:13;;;;;;;15.50;5.03;;;;;;;-3.00;100.00;101757.94;4957462;28;20583;-68
2024/01/21 10:50:43;;;;;;;6.73;3.53;;;;;;;-2.69;100.00;101741.72;4963096;28;20220;-69
2024/01/21 10:53:13;;;;;;;8.13;4.23;;;;;;;-2.37;100.00;101754.91;4966809;28;20970;-67
2024/01/21 10:55:40;;;;;;;11.40;3.63;;;;;;;-2.49;100.00;101752.91;4964483;28;20209;-69
2024/01/21 10:58:08;;;;;;;12.27;3.97;;;;;;;-2.57;100.00;101745.38;4967456;28;20213;-69
2024/01/21 11:00:36;;;;;;;7.23;4.47;;;;;;;-2.70;100.00;101736.41;4964473;28;20226;-67
2024/01/21 11:03:26;;;;;;;12.03;5.13;;;;;;;-2.88;100.00;101736.59;4966241;28;20481;-69
2024/01/21 11:06:06;;;;;;;11.80;4.40;;;;;;;-3.22;100.00;101726.59;4972811;28;21004;-69
2024/01/21 11:08:35;;;;;;;11.77;3.87;;;;;;;-2.96;100.00;101731.50;4969952;28;20464;-69